createdAt,value
2023-01-26T00:01:41.118Z,42.50
2023-01-26T00:05:55.449Z,39.90
2023-01-26T00:10:16.103Z,42.20
2023-01-26T00:14:33.368Z,37.50
2023-01-26T00:18:53.761Z,38.40
2023-01-26T00:23:15.114Z,40.80
2023-01-26T00:27:33.450Z,59.40
2023-01-26T00:31:58.438Z,70.70
2023-01-26T00:36:27.182Z,53.50
2023-01-26T00:40:44.277Z,50.70
2023-01-26T00:45:09.036Z,53.40
2023-01-26T00:49:13.933Z,62.20
2023-01-26T00:53:08.400Z,42.10
2023-01-26T00:57:05.766Z,55.30
2023-01-26T01:01:46.764Z,63.00
2023-01-26T01:06:14.684Z,58.70
2023-01-26T01:10:45.492Z,55.20
2023-01-26T01:15:11.099Z,59.50
2023-01-26T01:19:38.796Z,55.30
2023-01-26T01:24:09.408Z,66.60
2023-01-26T01:28:26.271Z,54.30
2023-01-26T01:37:44.664Z,58.10
2023-01-26T01:42:01.867Z,66.30
2023-01-26T01:50:52.490Z,78.40
2023-01-26T01:55:20.648Z,80.20
2023-01-26T01:59:52.336Z,75.20
2023-01-26T02:04:12.975Z,74.30
2023-01-26T02:08:31.052Z,51.80
2023-01-26T02:12:25.062Z,76.30
2023-01-26T02:16:34.592Z,72.90
2023-01-26T02:21:15.049Z,75.80
2023-01-26T02:25:43.005Z,69.50
2023-01-26T02:30:22.564Z,76.00
2023-01-26T02:38:45.936Z,66.30
2023-01-26T02:43:23.119Z,60.20
2023-01-26T02:48:00.603Z,61.50
2023-01-26T02:52:12.954Z,56.00
2023-01-26T02:56:46.800Z,72.10
2023-01-26T03:00:43.692Z,67.00
2023-01-26T03:05:06.087Z,50.10
2023-01-26T03:09:25.614Z,44.80
2023-01-26T03:17:19.112Z,51.10
2023-01-26T03:21:13.940Z,51.50
2023-01-26T03:25:15.058Z,63.00
2023-01-26T03:29:37.092Z,61.10
2023-01-26T03:37:00.397Z,77.20
2023-01-26T03:40:37.979Z,85.50
2023-01-26T03:44:40.730Z,86.10
2023-01-26T03:48:52.878Z,93.90
2023-01-26T03:53:30.897Z,91.40
2023-01-26T03:57:49.284Z,102.50
2023-01-26T04:01:44.425Z,100.40
2023-01-26T04:05:38.714Z,113.70
2023-01-26T04:16:25.792Z,127.10
2023-01-26T04:20:15.075Z,167.60
2023-01-26T04:24:07.162Z,136.50
2023-01-26T04:27:54.389Z,133.10
2023-01-26T04:31:46.187Z,101.70
2023-01-26T04:35:42.126Z,106.10
2023-01-26T04:39:45.283Z,99.60
2023-01-26T04:43:30.141Z,94.00
2023-01-26T04:47:24.179Z,85.40
2023-01-26T04:51:14.175Z,88.00
2023-01-26T04:55:11.183Z,87.70
2023-01-26T04:59:01.148Z,84.00
2023-01-26T05:02:48.181Z,71.40
2023-01-26T05:06:37.196Z,81.10
2023-01-26T05:10:29.193Z,102.30
2023-01-26T05:15:26.254Z,108.80
2023-01-26T05:19:22.271Z,112.50
2023-01-26T05:23:44.314Z,86.90
2023-01-26T05:27:49.231Z,66.30
2023-01-26T05:31:42.498Z,77.80
2023-01-26T05:35:34.268Z,81.30
2023-01-26T05:40:00.220Z,92.40
2023-01-26T05:44:33.289Z,98.50
2023-01-26T05:48:17.307Z,102.40
2023-01-26T05:52:12.271Z,94.10
2023-01-26T06:00:21.889Z,97.40
2023-01-26T06:08:30.541Z,98.50
2023-01-26T06:12:38.267Z,88.00
2023-01-26T06:16:56.248Z,105.30
2023-01-26T06:25:03.502Z,89.00
2023-01-26T06:29:04.329Z,93.20
2023-01-26T06:33:10.317Z,96.60
2023-01-26T06:37:13.549Z,95.60
2023-01-26T06:40:43.306Z,103.00
2023-01-26T06:44:44.291Z,107.00
2023-01-26T06:48:54.337Z,128.60
2023-01-26T06:52:43.317Z,104.50
2023-01-26T06:56:36.347Z,111.20
2023-01-26T07:00:13.459Z,115.80
2023-01-26T07:04:17.355Z,127.80
2023-01-26T07:12:00.854Z,136.70
2023-01-26T07:15:58.332Z,138.70
2023-01-26T07:19:36.579Z,147.80
2023-01-26T07:23:32.253Z,125.40
2023-01-26T07:27:18.687Z,133.20
2023-01-26T07:30:55.348Z,149.80
2023-01-26T07:34:37.356Z,144.70
2023-01-26T07:38:23.394Z,135.00
2023-01-26T07:42:20.357Z,133.90
2023-01-26T07:46:14.333Z,146.90
2023-01-26T07:53:50.369Z,139.50
2023-01-26T07:57:33.405Z,165.00
2023-01-26T08:02:02.857Z,166.60
2023-01-26T08:05:36.328Z,168.60
2023-01-26T08:09:26.418Z,161.20
2023-01-26T08:16:54.392Z,117.70
2023-01-26T08:20:43.399Z,158.10
2023-01-26T08:28:05.406Z,148.40
2023-01-26T08:32:03.402Z,130.10
2023-01-26T08:35:59.427Z,145.90
2023-01-26T08:39:59.414Z,131.30
2023-01-26T08:44:05.370Z,143.50
2023-01-26T08:48:00.428Z,147.00
2023-01-26T08:52:04.735Z,138.20
2023-01-26T08:55:55.871Z,126.40
2023-01-26T08:59:44.514Z,122.30
2023-01-26T09:03:39.535Z,137.40
2023-01-26T09:07:30.761Z,139.30
2023-01-26T09:11:13.476Z,147.50
2023-01-26T09:14:54.425Z,132.10
2023-01-26T09:18:54.401Z,118.10
2023-01-26T09:22:40.476Z,111.50
2023-01-26T09:26:30.486Z,112.30
2023-01-26T09:30:47.516Z,125.60
2023-01-26T09:49:01.682Z,110.40
2023-01-26T12:13:55.615Z,59.40
2023-01-26T12:25:47.017Z,69.60
2023-01-26T12:29:47.658Z,76.60
2023-01-26T12:37:36.053Z,54.30
2023-01-26T12:45:25.648Z,61.60
2023-01-26T12:52:49.582Z,60.60
2023-01-26T12:56:47.628Z,59.80
2023-01-26T13:19:33.768Z,57.40
2023-01-26T13:23:20.598Z,57.20
2023-01-26T13:27:30.514Z,55.70
2023-01-26T13:31:14.948Z,54.60
2023-01-26T13:35:20.768Z,55.90
2023-01-26T13:39:22.615Z,54.00
2023-01-26T13:43:28.670Z,49.60
2023-01-26T13:47:28.752Z,60.00
2023-01-26T13:55:22.674Z,50.30
2023-01-26T14:06:33.329Z,50.00
2023-01-26T14:18:55.195Z,48.00
2023-01-26T14:26:47.757Z,45.50
2023-01-26T14:34:42.766Z,42.90
2023-01-26T14:38:35.683Z,52.70
2023-01-26T14:42:20.568Z,54.40
2023-01-26T14:45:59.814Z,45.70
2023-01-26T14:49:43.735Z,57.20
2023-01-26T14:53:28.722Z,52.70
2023-01-26T14:57:09.617Z,48.40
2023-01-26T15:00:56.752Z,52.10
2023-01-26T15:04:45.700Z,58.30
2023-01-26T15:08:30.860Z,56.90
2023-01-26T15:12:31.874Z,56.90
2023-01-26T15:16:37.751Z,56.10
2023-01-26T15:20:48.798Z,63.40
2023-01-26T15:24:53.842Z,60.40
2023-01-26T15:28:47.400Z,62.90
2023-01-26T15:37:34.866Z,70.10
2023-01-26T15:41:23.027Z,66.50
2023-01-26T15:45:55.615Z,69.30
2023-01-26T15:49:54.852Z,74.40
2023-01-26T15:53:24.195Z,74.80
2023-01-26T15:57:17.573Z,76.90
2023-01-26T16:01:10.239Z,70.20
2023-01-26T16:05:14.392Z,73.90
2023-01-26T16:09:21.987Z,79.20
2023-01-26T16:13:19.855Z,74.50
2023-01-26T16:17:11.623Z,83.20
2023-01-26T16:21:13.684Z,89.30
2023-01-26T16:24:59.418Z,78.20
2023-01-26T16:28:56.966Z,85.50
2023-01-26T16:33:06.111Z,79.60
2023-01-26T16:37:09.096Z,82.20
2023-01-26T16:41:22.972Z,92.80
2023-01-26T16:45:09.125Z,88.80
2023-01-26T16:49:04.041Z,97.60
2023-01-26T16:53:13.849Z,84.50
2023-01-26T16:57:16.305Z,84.50
2023-01-26T17:01:26.503Z,82.30
2023-01-26T17:05:39.987Z,81.80
2023-01-26T17:09:31.284Z,88.60
2023-01-26T17:13:27.123Z,84.70
2023-01-26T17:17:25.565Z,88.20
2023-01-26T17:21:28.505Z,85.70
2023-01-26T17:25:38.102Z,85.90
2023-01-26T17:33:59.217Z,83.50
2023-01-26T17:37:51.218Z,84.10
2023-01-26T17:41:52.573Z,81.20
2023-01-26T17:45:53.523Z,82.40
2023-01-26T17:50:04.604Z,80.10
2023-01-26T17:54:06.547Z,79.10
2023-01-26T17:58:03.934Z,78.50
2023-01-26T18:02:04.383Z,78.80
2023-01-26T18:05:46.416Z,85.90
2023-01-26T18:09:47.137Z,89.90
2023-01-26T18:13:40.830Z,96.50
2023-01-26T18:17:41.050Z,93.50
2023-01-26T18:21:32.455Z,83.00
2023-01-26T18:25:06.842Z,79.00
2023-01-26T18:29:01.175Z,76.60
2023-01-26T18:32:33.354Z,76.20
2023-01-26T18:36:27.927Z,77.00
2023-01-26T18:40:30.770Z,72.30
2023-01-26T18:44:35.199Z,68.70
2023-01-26T18:48:35.452Z,140.00
2023-01-26T18:52:30.720Z,145.10
2023-01-26T18:56:23.454Z,107.90
2023-01-26T19:00:29.095Z,81.10
2023-01-26T19:04:26.897Z,86.30
2023-01-26T19:08:23.818Z,69.60
2023-01-26T19:12:11.158Z,83.10
2023-01-26T19:15:55.142Z,73.10
2023-01-26T23:28:30.070Z,96.90
2023-01-26T23:32:26.169Z,91.60
2023-01-26T23:36:18.204Z,83.40
2023-01-26T23:40:06.764Z,81.80
2023-01-26T23:44:20.057Z,90.10
2023-01-26T23:48:36.135Z,84.50
2023-01-26T23:52:55.970Z,94.20
2023-01-26T23:56:45.500Z,88.90
